Time;durP1;ratioP1;P1;durP2;ratioP2;P2;SDS_P1;SDS_P2;PMS_P1;PMS_P2;Temp;Humidity;BMP_temperature;BMP_pressure;BME280_temperature;BME280_humidity;BME280_pressure;Samples;Min_cycle;Max_cycle;Signal;HPM_P1;HPM_P2
2023/04/14 00:00:51;;;;;;;0.80;0.60;;;;;;;;;;5019756;28;20230;-61
2023/04/14 00:03:18;;;;;;;0.55;0.50;;;;;;;;;;5019810;28;20261;-61
2023/04/14 00:05:46;;;;;;;0.65;0.65;;;;;;;;;;5019790;28;20214;-62
2023/04/14 00:08:15;;;;;;;0.50;0.50;;;;;;;;;;5019745;28;20206;-61
2023/04/14 00:10:42;;;;;;;0.70;0.60;;;;;;;;;;5019877;28;20289;-61
2023/04/14 00:13:10;;;;;;;0.77;0.55;;;;;;;;;;5019583;28;20217;-61
2023/04/14 00:15:37;;;;;;;0.50;0.50;;;;;;;;;;5018039;28;20630;-61
2023/04/14 00:18:04;;;;;;;0.50;0.50;;;;;;;;;;5019680;28;20286;-61
2023/04/14 00:20:32;;;;;;;0.50;0.50;;;;;;;;;;5019175;28;20673;-61
2023/04/14 00:22:59;;;;;;;0.60;0.50;;;;;;;;;;5019468;28;20214;-61
2023/04/14 00:25:28;;;;;;;0.50;0.50;;;;;;;;;;5019435;28;20236;-61
2023/04/14 00:27:55;;;;;;;0.60;0.60;;;;;;;;;;5019593;28;20214;-61
2023/04/14 00:30:22;;;;;;;0.60;0.60;;;;;;;;;;5018944;28;20214;-62
2023/04/14 00:32:50;;;;;;;0.70;0.60;;;;;;;;;;5019208;28;20272;-62
2023/04/14 00:35:17;;;;;;;1.27;0.50;;;;;;;;;;5019515;28;20206;-61
2023/04/14 00:37:45;;;;;;;0.68;0.68;;;;;;;;;;5018981;28;20213;-62
2023/04/14 00:40:12;;;;;;;0.65;0.60;;;;;;;;;;5018815;28;20241;-61
2023/04/14 00:42:44;;;;;;;0.70;0.70;;;;;;;;;;5018965;28;20213;-61
2023/04/14 00:45:12;;;;;;;0.50;0.50;;;;;;;;;;5018922;28;20218;-61
2023/04/14 00:47:40;;;;;;;0.90;0.77;;;;;;;;;;5018844;28;20206;-61
2023/04/14 00:50:09;;;;;;;0.55;0.50;;;;;;;;;;5018978;28;20217;-61
2023/04/14 00:52:37;;;;;;;0.60;0.60;;;;;;;;;;5018904;28;20545;-61
2023/04/14 00:55:04;;;;;;;0.73;0.60;;;;;;;;;;5019060;28;20214;-61
2023/04/14 00:57:32;;;;;;;0.60;0.60;;;;;;;;;;5018383;28;20691;-61
2023/04/14 01:00:03;;;;;;;0.60;0.57;;;;;;;;;;5018441;28;20207;-61
2023/04/14 01:02:30;;;;;;;0.85;0.60;;;;;;;;;;5018537;28;20230;-61
2023/04/14 01:04:58;;;;;;;0.65;0.60;;;;;;;;;;5018442;28;20205;-61
2023/04/14 01:07:27;;;;;;;0.57;0.50;;;;;;;;;;5017949;28;20214;-61
2023/04/14 01:09:56;;;;;;;0.65;0.65;;;;;;;;;;5017784;28;20633;-61
2023/04/14 01:12:27;;;;;;;0.50;0.50;;;;;;;;;;5017921;28;20289;-61
2023/04/14 01:14:59;;;;;;;0.70;0.70;;;;;;;;;;5018514;28;20229;-61
2023/04/14 01:17:33;;;;;;;1.05;0.70;;;;;;;;;;5018314;28;20221;-61
2023/04/14 01:20:08;;;;;;;0.75;0.70;;;;;;;;;;5018024;28;20207;-61
2023/04/14 01:22:37;;;;;;;0.60;0.60;;;;;;;;;;5018605;28;20633;-61
2023/04/14 01:25:10;;;;;;;0.60;0.60;;;;;;;;;;5018518;28;20229;-61
2023/04/14 01:27:41;;;;;;;0.60;0.55;;;;;;;;;;5018149;28;20272;-62
2023/04/14 01:30:27;;;;;;;0.75;0.55;;;;;;;;;;5018355;28;20587;-61
2023/04/14 01:32:57;;;;;;;0.68;0.60;;;;;;;;;;5017442;28;20199;-61
2023/04/14 01:35:29;;;;;;;0.50;0.50;;;;;;;;;;5017881;28;20202;-61
2023/04/14 01:38:02;;;;;;;0.70;0.65;;;;;;;;;;5017989;28;20218;-61
2023/04/14 01:40:30;;;;;;;0.60;0.60;;;;;;;;;;5017743;28;20206;-62
2023/04/14 01:43:01;;;;;;;0.70;0.60;;;;;;;;;;5017764;28;20206;-61
2023/04/14 01:45:31;;;;;;;0.60;0.60;;;;;;;;;;5017485;28;20264;-61
2023/04/14 01:48:00;;;;;;;0.45;0.43;;;;;;;;;;5017467;28;20213;-61
2023/04/14 01:50:28;;;;;;;0.60;0.60;;;;;;;;;;5017827;28;20207;-61
2023/04/14 01:52:56;;;;;;;0.70;0.70;;;;;;;;;;5017640;28;20206;-61
2023/04/14 01:55:24;;;;;;;0.50;0.50;;;;;;;;;;5017953;28;20226;-61
2023/04/14 01:57:53;;;;;;;0.47;0.40;;;;;;;;;;5017724;28;20268;-61
2023/04/14 02:00:21;;;;;;;0.57;0.57;;;;;;;;;;5017889;28;20241;-61
2023/04/14 02:02:50;;;;;;;0.52;0.52;;;;;;;;;;5017416;28;20269;-61
2023/04/14 02:05:20;;;;;;;0.63;0.63;;;;;;;;;;5017801;28;20241;-61
2023/04/14 02:07:48;;;;;;;1.00;0.70;;;;;;;;;;5017969;28;20213;-61
2023/04/14 02:10:16;;;;;;;0.70;0.60;;;;;;;;;;5018026;28;20206;-61
2023/04/14 02:12:43;;;;;;;0.40;0.40;;;;;;;;;;5017461;28;20210;-61
2023/04/14 02:15:14;;;;;;;0.60;0.60;;;;;;;;;;5017337;28;20313;-61
2023/04/14 02:17:42;;;;;;;0.70;0.70;;;;;;;;;;5018115;28;20488;-61
2023/04/14 02:20:10;;;;;;;0.63;0.63;;;;;;;;;;5017635;28;20317;-61
2023/04/14 02:22:39;;;;;;;0.65;0.57;;;;;;;;;;5017106;28;20530;-61
2023/04/14 02:25:07;;;;;;;0.60;0.60;;;;;;;;;;5016923;28;20786;-61
2023/04/14 02:27:37;;;;;;;0.68;0.68;;;;;;;;;;5016931;28;20579;-61
2023/04/14 02:30:08;;;;;;;0.60;0.60;;;;;;;;;;5017253;28;20213;-61
2023/04/14 02:32:36;;;;;;;0.50;0.47;;;;;;;;;;5017573;28;20202;-61
2023/04/14 02:35:07;;;;;;;0.50;0.50;;;;;;;;;;5017135;28;20214;-61
2023/04/14 02:37:38;;;;;;;0.60;0.60;;;;;;;;;;5017225;28;20212;-61
2023/04/14 02:40:10;;;;;;;0.50;0.50;;;;;;;;;;5020552;28;20202;-61
2023/04/14 02:42:40;;;;;;;0.80;0.50;;;;;;;;;;5021049;28;20622;-61
2023/04/14 02:45:12;;;;;;;0.60;0.60;;;;;;;;;;5021492;28;20292;-61
2023/04/14 02:47:42;;;;;;;0.55;0.55;;;;;;;;;;5021175;28;20233;-61
2023/04/14 02:50:12;;;;;;;0.60;0.60;;;;;;;;;;5021116;28;20206;-61
2023/04/14 02:52:39;;;;;;;0.60;0.60;;;;;;;;;;5020900;28;20496;-61
2023/04/14 02:55:10;;;;;;;0.55;0.40;;;;;;;;;;5021264;28;20264;-61
2023/04/14 02:57:37;;;;;;;0.60;0.60;;;;;;;;;;5020923;28;20207;-61
2023/04/14 03:00:06;;;;;;;0.73;0.60;;;;;;;;;;5021182;28;20214;-61
2023/04/14 03:02:34;;;;;;;1.60;0.63;;;;;;;;;;5020751;28;20328;-62
2023/04/14 03:05:02;;;;;;;0.50;0.50;;;;;;;;;;5021202;28;20530;-61
2023/04/14 03:07:29;;;;;;;0.55;0.52;;;;;;;;;;5020892;28;20212;-61
2023/04/14 03:09:57;;;;;;;0.52;0.50;;;;;;;;;;5020822;28;20223;-61
2023/04/14 03:12:26;;;;;;;0.50;0.50;;;;;;;;;;5020563;28;20203;-61
2023/04/14 03:14:54;;;;;;;0.40;0.40;;;;;;;;;;5020586;28;20206;-61
2023/04/14 03:17:22;;;;;;;0.70;0.50;;;;;;;;;;5020088;28;20210;-61
2023/04/14 03:19:50;;;;;;;0.70;0.50;;;;;;;;;;5020777;28;20210;-61
2023/04/14 03:22:18;;;;;;;0.60;0.60;;;;;;;;;;5020452;28;20237;-61
2023/04/14 03:24:46;;;;;;;0.50;0.50;;;;;;;;;;5020369;28;20210;-62
2023/04/14 03:27:15;;;;;;;0.93;0.70;;;;;;;;;;5019744;28;20598;-61
2023/04/14 03:29:45;;;;;;;0.55;0.55;;;;;;;;;;5020647;28;20206;-62
2023/04/14 03:32:14;;;;;;;0.60;0.60;;;;;;;;;;5019496;28;20230;-61
2023/04/14 03:34:42;;;;;;;0.50;0.50;;;;;;;;;;5020093;28;20484;-61
2023/04/14 03:37:10;;;;;;;0.65;0.65;;;;;;;;;;5020832;28;20206;-62
2023/04/14 03:39:39;;;;;;;0.60;0.50;;;;;;;;;;5020380;28;20207;-61
2023/04/14 03:42:07;;;;;;;0.47;0.47;;;;;;;;;;5020168;28;20222;-61
2023/04/14 03:44:36;;;;;;;0.40;0.40;;;;;;;;;;5019785;28;20233;-61
2023/04/14 03:47:07;;;;;;;0.70;0.60;;;;;;;;;;5020037;28;20214;-61
2023/04/14 03:49:36;;;;;;;0.50;0.50;;;;;;;;;;5019533;28;20214;-61
2023/04/14 03:52:05;;;;;;;1.08;0.50;;;;;;;;;;5019671;28;20203;-61
2023/04/14 03:54:33;;;;;;;0.40;0.40;;;;;;;;;;5019882;28;20234;-61
2023/04/14 03:57:03;;;;;;;0.50;0.50;;;;;;;;;;5019540;28;20459;-61
2023/04/14 03:59:32;;;;;;;0.60;0.60;;;;;;;;;;5019914;28;20385;-61
2023/04/14 04:02:01;;;;;;;0.50;0.50;;;;;;;;;;5019085;28;20248;-61
2023/04/14 04:04:30;;;;;;;0.60;0.60;;;;;;;;;;5019316;28;20274;-61
2023/04/14 04:06:58;;;;;;;0.68;0.68;;;;;;;;;;5019476;28;20206;-61
2023/04/14 04:09:26;;;;;;;0.68;0.68;;;;;;;;;;5018980;28;20220;-61
2023/04/14 04:11:56;;;;;;;0.60;0.60;;;;;;;;;;5019112;28;20206;-61
2023/04/14 04:14:24;;;;;;;0.57;0.50;;;;;;;;;;5018900;28;20202;-61
2023/04/14 04:16:52;;;;;;;0.40;0.40;;;;;;;;;;5019011;28;20206;-61
2023/04/14 04:19:21;;;;;;;0.60;0.55;;;;;;;;;;5019676;28;20251;-61
2023/04/14 04:21:50;;;;;;;0.60;0.60;;;;;;;;;;5018998;28;20266;-61
2023/04/14 04:24:18;;;;;;;0.45;0.45;;;;;;;;;;5018519;28;20206;-61
2023/04/14 04:26:47;;;;;;;0.80;0.70;;;;;;;;;;5018658;28;20206;-61
2023/04/14 04:29:14;;;;;;;0.60;0.60;;;;;;;;;;5018643;28;20583;-61
2023/04/14 04:31:41;;;;;;;0.63;0.57;;;;;;;;;;5019031;28;20217;-61
2023/04/14 04:34:09;;;;;;;0.40;0.40;;;;;;;;;;5018492;28;20207;-62
2023/04/14 04:36:36;;;;;;;0.70;0.50;;;;;;;;;;5018951;28;20233;-61
2023/04/14 04:39:05;;;;;;;0.50;0.50;;;;;;;;;;5018654;28;20221;-62
2023/04/14 04:41:33;;;;;;;0.50;0.50;;;;;;;;;;5018100;28;20206;-61
2023/04/14 04:44:00;;;;;;;0.52;0.50;;;;;;;;;;5018500;28;20222;-61
2023/04/14 04:46:45;;;;;;;0.32;0.32;;;;;;;;;;5018821;28;20198;-62
2023/04/14 04:49:12;;;;;;;0.50;0.50;;;;;;;;;;5018148;28;20218;-61
2023/04/14 04:51:40;;;;;;;0.50;0.50;;;;;;;;;;5018066;28;20214;-61
2023/04/14 04:54:08;;;;;;;0.50;0.40;;;;;;;;;;5017885;28;20215;-61
2023/04/14 04:56:36;;;;;;;0.60;0.60;;;;;;;;;;5018354;28;20217;-61
2023/04/14 04:59:03;;;;;;;0.60;0.60;;;;;;;;;;5018144;28;20214;-61
2023/04/14 05:01:30;;;;;;;0.50;0.50;;;;;;;;;;5016652;28;20229;-61
2023/04/14 05:03:58;;;;;;;0.50;0.50;;;;;;;;;;5017516;28;20213;-61
2023/04/14 05:06:27;;;;;;;0.50;0.50;;;;;;;;;;5017522;28;20213;-61
2023/04/14 05:08:54;;;;;;;0.40;0.40;;;;;;;;;;5017815;28;20264;-61
2023/04/14 05:11:23;;;;;;;0.40;0.40;;;;;;;;;;5018043;28;20203;-61
2023/04/14 05:13:50;;;;;;;0.45;0.45;;;;;;;;;;5017731;28;20485;-61
2023/04/14 05:16:18;;;;;;;0.50;0.50;;;;;;;;;;5017394;28;20203;-61
2023/04/14 05:18:45;;;;;;;0.52;0.52;;;;;;;;;;5017174;28;20252;-61
2023/04/14 05:21:13;;;;;;;0.60;0.60;;;;;;;;;;5016994;28;20218;-62
2023/04/14 05:23:42;;;;;;;0.68;0.68;;;;;;;;;;5017800;28;20479;-61
2023/04/14 05:26:11;;;;;;;0.55;0.55;;;;;;;;;;5017662;28;20214;-61
2023/04/14 05:28:40;;;;;;;0.60;0.50;;;;;;;;;;5016874;28;20349;-61
2023/04/14 05:31:08;;;;;;;0.47;0.47;;;;;;;;;;5017408;28;20206;-61
2023/04/14 05:33:35;;;;;;;0.47;0.47;;;;;;;;;;5017328;28;20210;-61
2023/04/14 05:36:03;;;;;;;0.50;0.50;;;;;;;;;;5016876;28;20206;-61
2023/04/14 05:38:30;;;;;;;0.40;0.40;;;;;;;;;;5017492;28;20545;-61
2023/04/14 05:40:57;;;;;;;1.23;0.65;;;;;;;;;;5017644;28;20210;-61
2023/04/14 05:43:25;;;;;;;0.90;0.60;;;;;;;;;;5017491;28;20572;-61
2023/04/14 05:45:57;;;;;;;0.63;0.60;;;;;;;;;;5017217;28;20207;-61
2023/04/14 05:48:26;;;;;;;0.70;0.60;;;;;;;;;;5017505;28;20206;-61
2023/04/14 05:50:54;;;;;;;0.93;0.90;;;;;;;;;;5017065;28;20257;-61
2023/04/14 05:53:22;;;;;;;2.13;0.63;;;;;;;;;;5016505;28;20235;-61
2023/04/14 05:55:51;;;;;;;1.15;0.70;;;;;;;;;;5016926;28;20206;-61
2023/04/14 05:58:18;;;;;;;0.73;0.70;;;;;;;;;;5017088;28;20206;-61
2023/04/14 06:00:46;;;;;;;0.73;0.63;;;;;;;;;;5016632;28;20210;-61
2023/04/14 06:03:15;;;;;;;0.63;0.60;;;;;;;;;;5015715;28;20641;-61
2023/04/14 06:05:43;;;;;;;0.70;0.70;;;;;;;;;;5016104;28;20256;-61
2023/04/14 06:08:10;;;;;;;0.60;0.60;;;;;;;;;;5016879;28;20304;-61
2023/04/14 06:10:37;;;;;;;1.08;0.75;;;;;;;;;;5016938;28;20214;-61
2023/04/14 06:13:05;;;;;;;1.58;0.90;;;;;;;;;;5016723;28;20209;-61
2023/04/14 06:15:32;;;;;;;0.80;0.70;;;;;;;;;;5016774;28;20309;-61
2023/04/14 06:17:59;;;;;;;1.30;0.75;;;;;;;;;;5016645;28;20261;-61
2023/04/14 06:20:28;;;;;;;1.45;0.88;;;;;;;;;;5017084;28;20465;-61
2023/04/14 06:22:55;;;;;;;1.38;0.80;;;;;;;;;;5016275;28;20230;-61
2023/04/14 06:25:23;;;;;;;1.00;0.70;;;;;;;;;;5016638;28;20210;-61
2023/04/14 06:27:50;;;;;;;0.88;0.80;;;;;;;;;;5016761;28;20205;-61
2023/04/14 06:30:18;;;;;;;1.02;0.93;;;;;;;;;;5016056;28;20210;-61
2023/04/14 06:32:47;;;;;;;0.80;0.75;;;;;;;;;;5016307;28;20209;-61
2023/04/14 06:35:14;;;;;;;1.13;0.73;;;;;;;;;;5017063;28;20212;-61
2023/04/14 06:37:43;;;;;;;1.17;0.90;;;;;;;;;;5016282;28;20210;-61
2023/04/14 06:40:11;;;;;;;1.20;0.70;;;;;;;;;;5016250;28;20214;-61
2023/04/14 06:42:38;;;;;;;0.70;0.60;;;;;;;;;;5016639;28;20226;-62
2023/04/14 06:45:06;;;;;;;1.90;0.70;;;;;;;;;;5018920;28;20199;-61
2023/04/14 06:47:33;;;;;;;2.05;0.98;;;;;;;;;;5015507;28;20241;-61
2023/04/14 06:50:01;;;;;;;0.93;0.80;;;;;;;;;;5015429;28;20286;-61
2023/04/14 06:52:29;;;;;;;3.03;1.00;;;;;;;;;;5015552;28;20727;-62
2023/04/14 06:54:57;;;;;;;2.40;0.90;;;;;;;;;;5016532;28;20547;-61
2023/04/14 06:57:25;;;;;;;1.13;0.80;;;;;;;;;;5015579;28;20233;-62
2023/04/14 06:59:52;;;;;;;1.23;1.08;;;;;;;;;;5015556;28;20214;-61
2023/04/14 07:02:19;;;;;;;1.45;0.90;;;;;;;;;;5015565;28;20248;-61
2023/04/14 07:04:47;;;;;;;2.38;0.98;;;;;;;;;;5015836;28;20214;-62
2023/04/14 07:07:14;;;;;;;1.70;1.00;;;;;;;;;;5015485;28;20206;-61
2023/04/14 07:09:42;;;;;;;1.10;1.00;;;;;;;;;;5014973;28;20220;-62
2023/04/14 07:12:15;;;;;;;1.42;0.90;;;;;;;;;;5015353;28;20582;-62
2023/04/14 07:14:49;;;;;;;1.02;0.90;;;;;;;;;;5014823;28;20210;-62
2023/04/14 07:17:16;;;;;;;1.35;0.90;;;;;;;;;;5015454;28;20206;-62
2023/04/14 07:19:45;;;;;;;1.55;0.90;;;;;;;;;;5015137;28;20629;-61
2023/04/14 07:22:12;;;;;;;1.80;1.00;;;;;;;;;;5015147;28;20217;-61
2023/04/14 07:24:39;;;;;;;2.00;0.90;;;;;;;;;;5015928;28;20228;-61
2023/04/14 07:27:08;;;;;;;1.65;1.00;;;;;;;;;;5018606;28;20210;-61
2023/04/14 07:29:36;;;;;;;1.13;0.82;;;;;;;;;;5019183;28;20618;-61
2023/04/14 07:32:04;;;;;;;1.30;1.10;;;;;;;;;;5018645;28;20628;-61
2023/04/14 07:34:33;;;;;;;4.88;1.00;;;;;;;;;;5019253;28;20202;-61
2023/04/14 07:37:00;;;;;;;2.83;1.10;;;;;;;;;;5018136;28;20233;-62
2023/04/14 07:39:28;;;;;;;1.20;1.02;;;;;;;;;;5018891;28;20206;-62
2023/04/14 07:41:56;;;;;;;1.63;1.00;;;;;;;;;;5019001;28;20207;-61
2023/04/14 07:44:23;;;;;;;1.52;1.00;;;;;;;;;;5018676;28;20288;-61
2023/04/14 07:46:52;;;;;;;1.58;1.10;;;;;;;;;;5018991;28;20216;-62
2023/04/14 07:49:19;;;;;;;1.20;1.00;;;;;;;;;;5018811;28;20217;-61
2023/04/14 07:51:47;;;;;;;1.60;0.93;;;;;;;;;;5018393;28;20207;-61
2023/04/14 07:54:14;;;;;;;1.33;1.20;;;;;;;;;;5017742;28;20207;-61
2023/04/14 07:56:42;;;;;;;1.20;1.10;;;;;;;;;;5018122;28;20206;-62
2023/04/14 07:59:09;;;;;;;1.45;1.10;;;;;;;;;;5017766;28;20206;-62
2023/04/14 08:01:37;;;;;;;1.70;1.10;;;;;;;;;;5018033;28;20217;-62
2023/04/14 08:04:05;;;;;;;2.45;0.90;;;;;;;;;;5018527;28;20320;-62
2023/04/14 08:06:33;;;;;;;1.48;1.33;;;;;;;;;;5017781;28;20202;-62
2023/04/14 08:09:00;;;;;;;3.25;1.20;;;;;;;;;;5018371;28;20530;-62
2023/04/14 08:11:27;;;;;;;2.08;1.00;;;;;;;;;;5018704;28;20206;-62
2023/04/14 08:13:55;;;;;;;2.30;1.30;;;;;;;;;;5018296;28;20202;-62
2023/04/14 08:16:23;;;;;;;1.98;1.45;;;;;;;;;;5017629;28;20562;-62
2023/04/14 08:18:51;;;;;;;1.38;1.13;;;;;;;;;;5017914;28;20289;-62
2023/04/14 08:21:20;;;;;;;2.28;1.08;;;;;;;;;;5018260;28;20533;-62
2023/04/14 08:23:48;;;;;;;1.23;0.93;;;;;;;;;;5018425;28;20230;-62
2023/04/14 08:26:15;;;;;;;2.85;1.00;;;;;;;;;;5016650;28;20210;-62
2023/04/14 08:28:42;;;;;;;1.23;1.10;;;;;;;;;;5017477;28;20492;-62
2023/04/14 08:31:10;;;;;;;1.40;1.10;;;;;;;;;;5018611;28;20218;-62
2023/04/14 08:33:38;;;;;;;3.55;1.20;;;;;;;;;;5017950;28;20531;-62
2023/04/14 08:36:05;;;;;;;3.67;1.20;;;;;;;;;;5016920;28;20315;-62
2023/04/14 08:38:34;;;;;;;2.35;1.20;;;;;;;;;;5017402;28;20641;-62
2023/04/14 08:41:02;;;;;;;1.63;1.20;;;;;;;;;;5017986;28;20511;-61
2023/04/14 08:43:29;;;;;;;1.58;1.13;;;;;;;;;;5017282;28;20222;-62
2023/04/14 08:45:57;;;;;;;2.13;1.42;;;;;;;;;;5017067;28;20210;-62
2023/04/14 08:48:29;;;;;;;3.45;1.20;;;;;;;;;;5017228;28;20206;-62
2023/04/14 08:51:01;;;;;;;2.58;1.20;;;;;;;;;;5016863;28;20272;-62
2023/04/14 08:53:30;;;;;;;2.72;1.00;;;;;;;;;;5017661;28;20217;-61
2023/04/14 08:56:00;;;;;;;1.35;1.08;;;;;;;;;;5017881;28;20645;-61
2023/04/14 08:58:27;;;;;;;1.73;1.08;;;;;;;;;;5017797;28;20206;-62
2023/04/14 09:00:55;;;;;;;3.00;1.20;;;;;;;;;;5016855;28;20206;-62
2023/04/14 09:03:22;;;;;;;1.50;1.20;;;;;;;;;;5016611;28;20642;-62
2023/04/14 09:05:50;;;;;;;1.92;1.00;;;;;;;;;;5017161;28;20233;-62
2023/04/14 09:08:17;;;;;;;1.65;1.08;;;;;;;;;;5017077;28;20249;-62
2023/04/14 09:10:45;;;;;;;2.53;1.25;;;;;;;;;;5016689;28;20209;-62
2023/04/14 09:13:14;;;;;;;1.10;0.90;;;;;;;;;;5016736;28;20206;-62
2023/04/14 09:15:42;;;;;;;1.85;1.00;;;;;;;;;;5016727;28;20374;-62
2023/04/14 09:18:10;;;;;;;2.17;1.00;;;;;;;;;;5016220;28;20567;-62
2023/04/14 09:20:38;;;;;;;1.25;1.02;;;;;;;;;;5017015;28;20202;-62
2023/04/14 09:23:05;;;;;;;2.55;1.10;;;;;;;;;;5016138;28;20221;-62
2023/04/14 09:25:33;;;;;;;2.70;1.05;;;;;;;;;;5016285;28;20237;-61
2023/04/14 09:28:00;;;;;;;1.23;1.13;;;;;;;;;;5015913;28;20207;-61
2023/04/14 09:30:29;;;;;;;1.80;1.05;;;;;;;;;;5015811;28;20473;-62
2023/04/14 09:32:56;;;;;;;2.00;1.13;;;;;;;;;;5015431;28;20202;-62
2023/04/14 09:35:25;;;;;;;1.85;1.10;;;;;;;;;;5016277;28;20206;-62
2023/04/14 09:37:52;;;;;;;1.92;1.10;;;;;;;;;;5016745;28;20217;-62
2023/04/14 09:40:28;;;;;;;1.63;1.02;;;;;;;;;;5016347;28;20313;-62
2023/04/14 09:42:56;;;;;;;1.77;1.10;;;;;;;;;;5016468;28;20628;-62
2023/04/14 09:45:24;;;;;;;1.85;1.00;;;;;;;;;;5015968;28;20202;-62
2023/04/14 09:48:06;;;;;;;1.95;1.15;;;;;;;;;;5015387;28;20206;-62
2023/04/14 09:50:35;;;;;;;1.25;1.10;;;;;;;;;;5015881;28;20582;-62
2023/04/14 09:53:04;;;;;;;1.90;1.42;;;;;;;;;;5015914;28;20198;-62
2023/04/14 09:55:32;;;;;;;2.67;1.23;;;;;;;;;;5016068;28;20609;-62
2023/04/14 09:58:00;;;;;;;2.08;1.25;;;;;;;;;;5015402;28;20206;-62
2023/04/14 10:00:27;;;;;;;1.45;1.20;;;;;;;;;;5016409;28;20206;-62
2023/04/14 10:02:57;;;;;;;1.77;1.30;;;;;;;;;;5015865;28;20250;-62
2023/04/14 10:05:28;;;;;;;3.58;1.23;;;;;;;;;;5016041;28;20292;-62
2023/04/14 10:07:55;;;;;;;1.77;1.60;;;;;;;;;;5016913;28;20213;-62
2023/04/14 10:10:23;;;;;;;1.58;1.10;;;;;;;;;;5016445;28;20237;-62
2023/04/14 10:12:50;;;;;;;1.33;1.23;;;;;;;;;;5016144;28;20268;-62
2023/04/14 10:15:18;;;;;;;1.40;1.30;;;;;;;;;;5016461;28;20230;-62
2023/04/14 10:17:45;;;;;;;1.63;1.00;;;;;;;;;;5015302;28;20206;-62
2023/04/14 10:20:13;;;;;;;2.13;1.00;;;;;;;;;;5014611;28;20226;-62
2023/04/14 10:22:42;;;;;;;1.38;1.27;;;;;;;;;;5016388;28;20225;-62
2023/04/14 10:25:10;;;;;;;2.92;1.38;;;;;;;;;;5015786;28;20222;-62
2023/04/14 10:27:37;;;;;;;2.38;1.38;;;;;;;;;;5015857;28;20205;-62
2023/04/14 10:30:07;;;;;;;1.90;1.27;;;;;;;;;;5014865;28;20214;-62
2023/04/14 10:32:35;;;;;;;2.67;1.00;;;;;;;;;;5015270;28;20202;-62
2023/04/14 10:35:10;;;;;;;1.10;1.00;;;;;;;;;;5015143;28;20261;-62
2023/04/14 10:37:42;;;;;;;1.48;1.20;;;;;;;;;;5015758;28;20244;-62
2023/04/14 10:40:12;;;;;;;1.20;1.10;;;;;;;;;;5015699;28;20202;-62
2023/04/14 10:42:52;;;;;;;2.63;1.40;;;;;;;;;;5015507;28;20203;-62
2023/04/14 10:45:20;;;;;;;2.33;1.10;;;;;;;;;;5015097;28;20268;-62
2023/04/14 10:47:48;;;;;;;3.17;1.30;;;;;;;;;;5014931;28;20285;-62
2023/04/14 10:50:18;;;;;;;2.90;1.33;;;;;;;;;;5015011;28;20239;-62
2023/04/14 10:52:53;;;;;;;1.95;1.30;;;;;;;;;;5015117;28;20206;-62
2023/04/14 10:55:23;;;;;;;1.85;1.23;;;;;;;;;;5014673;28;20214;-62
2023/04/14 10:57:51;;;;;;;1.20;1.10;;;;;;;;;;5015130;28;20218;-62
2023/04/14 11:00:25;;;;;;;1.10;1.00;;;;;;;;;;5017461;28;20540;-62
2023/04/14 11:02:56;;;;;;;1.88;1.20;;;;;;;;;;5018173;28;20560;-62
2023/04/14 11:05:23;;;;;;;1.20;1.10;;;;;;;;;;5018426;28;20229;-62
2023/04/14 11:07:54;;;;;;;1.17;1.08;;;;;;;;;;5020119;28;20242;-62
2023/04/14 11:10:43;;;;;;;2.03;1.42;;;;;;;;;;5018842;28;20214;-62
2023/04/14 11:13:13;;;;;;;1.35;1.20;;;;;;;;;;4994332;28;20207;-62
2023/04/14 11:15:45;;;;;;;1.33;1.00;;;;;;;;;;4999014;28;20202;-62
2023/04/14 11:18:13;;;;;;;1.67;1.38;;;;;;;;;;4998771;28;20773;-62
2023/04/14 11:20:41;;;;;;;2.03;1.20;;;;;;;;;;4999349;28;20234;-62
2023/04/14 11:23:09;;;;;;;1.67;1.20;;;;;;;;;;4999158;28;20369;-62
2023/04/14 11:25:36;;;;;;;1.10;1.00;;;;;;;;;;4998931;28;20266;-62
2023/04/14 11:28:03;;;;;;;1.30;1.10;;;;;;;;;;4999173;28;20207;-62
2023/04/14 11:30:32;;;;;;;1.08;1.00;;;;;;;;;;4998478;28;20742;-62
2023/04/14 11:33:00;;;;;;;2.00;1.20;;;;;;;;;;4998388;28;20269;-62
2023/04/14 11:35:28;;;;;;;2.00;0.90;;;;;;;;;;4998753;28;20653;-62
2023/04/14 11:37:55;;;;;;;1.42;1.25;;;;;;;;;;5009448;28;20213;-62
2023/04/14 11:40:23;;;;;;;1.20;1.10;;;;;;;;;;5018492;28;20855;-62
2023/04/14 11:42:53;;;;;;;2.05;1.15;;;;;;;;;;5018232;28;20214;-62
2023/04/14 11:45:20;;;;;;;1.20;1.10;;;;;;;;;;5017628;28;20226;-62
2023/04/14 11:47:57;;;;;;;1.27;1.17;;;;;;;;;;5018157;28;20203;-62
2023/04/14 11:50:24;;;;;;;1.23;1.13;;;;;;;;;;5018105;28;20287;-62
2023/04/14 11:52:53;;;;;;;1.20;1.10;;;;;;;;;;5017852;28;20206;-62
2023/04/14 11:55:23;;;;;;;1.80;1.05;;;;;;;;;;5017171;28;20217;-62
2023/04/14 11:57:51;;;;;;;2.13;1.40;;;;;;;;;;5017748;28;20301;-62
2023/04/14 12:00:19;;;;;;;1.42;1.10;;;;;;;;;;5016907;28;20671;-62
2023/04/14 12:02:46;;;;;;;1.38;0.90;;;;;;;;;;5017606;28;20238;-62
2023/04/14 12:05:19;;;;;;;1.88;1.25;;;;;;;;;;5017000;28;20624;-62
2023/04/14 12:07:48;;;;;;;1.52;1.20;;;;;;;;;;5017374;28;20253;-62
2023/04/14 12:10:15;;;;;;;1.33;1.05;;;;;;;;;;5017904;28;20600;-62
2023/04/14 12:12:43;;;;;;;1.73;1.10;;;;;;;;;;5018012;28;20317;-62
2023/04/14 12:15:12;;;;;;;1.10;1.00;;;;;;;;;;5017305;28;20202;-62
2023/04/14 12:17:40;;;;;;;1.00;1.00;;;;;;;;;;5016823;28;20206;-62
2023/04/14 12:20:14;;;;;;;1.00;1.00;;;;;;;;;;5017899;28;20206;-62
2023/04/14 12:22:43;;;;;;;1.42;1.33;;;;;;;;;;5017108;28;20264;-62
2023/04/14 12:25:11;;;;;;;1.10;1.00;;;;;;;;;;5017289;28;20238;-62
2023/04/14 12:27:38;;;;;;;1.05;1.05;;;;;;;;;;5016898;28;20300;-62
2023/04/14 12:30:06;;;;;;;1.38;1.20;;;;;;;;;;5017434;28;20264;-62
2023/04/14 12:32:39;;;;;;;1.05;0.88;;;;;;;;;;5016939;28;20217;-62
2023/04/14 12:35:07;;;;;;;1.30;1.20;;;;;;;;;;5016832;28;20253;-62
2023/04/14 12:37:35;;;;;;;1.05;0.90;;;;;;;;;;5016619;28;20256;-62
2023/04/14 12:40:05;;;;;;;1.95;1.10;;;;;;;;;;5016642;28;20248;-61
2023/04/14 12:42:44;;;;;;;3.83;1.10;;;;;;;;;;5016265;28;20207;-61
2023/04/14 12:45:11;;;;;;;2.35;1.10;;;;;;;;;;5015486;28;20234;-61
2023/04/14 12:47:38;;;;;;;2.88;0.93;;;;;;;;;;5016236;28;20261;-61
2023/04/14 12:50:20;;;;;;;2.78;1.20;;;;;;;;;;5016620;28;20202;-61
2023/04/14 12:52:48;;;;;;;3.05;1.13;;;;;;;;;;5016032;28;20206;-62
2023/04/14 12:55:21;;;;;;;2.63;1.40;;;;;;;;;;5016313;28;20205;-61
2023/04/14 12:57:49;;;;;;;5.68;1.48;;;;;;;;;;5015087;28;20309;-61
2023/04/14 13:00:16;;;;;;;3.97;1.40;;;;;;;;;;5015858;28;20210;-61
2023/04/14 13:02:44;;;;;;;4.57;1.05;;;;;;;;;;5015916;28;20237;-61
2023/04/14 13:05:12;;;;;;;5.50;1.52;;;;;;;;;;5015747;28;20568;-61
2023/04/14 13:07:39;;;;;;;1.85;0.90;;;;;;;;;;5015944;28;20206;-61
2023/04/14 13:10:07;;;;;;;2.47;1.20;;;;;;;;;;5014966;28;20199;-61
2023/04/14 13:12:35;;;;;;;1.23;1.00;;;;;;;;;;5015469;28;20478;-61
2023/04/14 13:15:03;;;;;;;2.40;1.15;;;;;;;;;;5016107;28;20202;-61
2023/04/14 13:17:30;;;;;;;2.00;1.10;;;;;;;;;;5016407;28;20206;-62
2023/04/14 13:19:58;;;;;;;2.00;1.20;;;;;;;;;;5015450;28;20214;-61
2023/04/14 13:22:25;;;;;;;4.20;1.27;;;;;;;;;;5014370;28;20617;-61
2023/04/14 13:24:52;;;;;;;2.05;1.20;;;;;;;;;;5015456;28;20257;-61
2023/04/14 13:27:20;;;;;;;1.63;1.10;;;;;;;;;;5015351;28;20207;-61
2023/04/14 13:29:49;;;;;;;2.00;1.20;;;;;;;;;;5014918;28;20221;-61
2023/04/14 13:32:17;;;;;;;1.15;1.02;;;;;;;;;;5016029;28;20257;-61
2023/04/14 13:34:44;;;;;;;1.00;0.90;;;;;;;;;;5015563;28;20218;-61
2023/04/14 13:37:11;;;;;;;1.88;1.10;;;;;;;;;;5015109;28;20221;-61
2023/04/14 13:39:39;;;;;;;2.13;0.90;;;;;;;;;;5014661;28;20206;-61
2023/04/14 13:42:06;;;;;;;2.05;1.05;;;;;;;;;;5015544;28;20242;-61
2023/04/14 13:44:34;;;;;;;1.52;1.00;;;;;;;;;;5015370;28;20579;-61
2023/04/14 13:47:03;;;;;;;1.25;1.10;;;;;;;;;;5015077;28;20210;-61
2023/04/14 13:49:30;;;;;;;1.77;0.77;;;;;;;;;;5014141;28;20644;-61
2023/04/14 13:51:57;;;;;;;1.30;1.13;;;;;;;;;;5014510;28;20571;-61
2023/04/14 13:54:25;;;;;;;4.10;1.13;;;;;;;;;;5015900;28;20210;-61
2023/04/14 13:56:52;;;;;;;1.15;1.00;;;;;;;;;;5015236;28;20549;-61
2023/04/14 13:59:21;;;;;;;2.78;1.02;;;;;;;;;;5015591;28;20211;-61
2023/04/14 14:01:49;;;;;;;1.67;0.93;;;;;;;;;;5015027;28;20214;-61
2023/04/14 14:04:17;;;;;;;1.63;1.10;;;;;;;;;;5014675;28;20264;-61
2023/04/14 14:06:45;;;;;;;0.80;0.80;;;;;;;;;;5015030;28;20222;-61
2023/04/14 14:09:12;;;;;;;1.05;0.90;;;;;;;;;;5026793;28;20205;-61
2023/04/14 14:11:42;;;;;;;1.90;1.08;;;;;;;;;;5035127;28;20216;-61
2023/04/14 14:14:11;;;;;;;1.58;0.80;;;;;;;;;;5034756;28;20217;-61
2023/04/14 14:16:38;;;;;;;1.58;0.88;;;;;;;;;;5035012;28;20232;-61
2023/04/14 14:19:08;;;;;;;1.75;0.82;;;;;;;;;;5017858;28;20202;-61
2023/04/14 14:21:37;;;;;;;0.98;0.90;;;;;;;;;;5014847;28;20240;-61
2023/04/14 14:24:04;;;;;;;1.90;0.95;;;;;;;;;;5015102;28;20241;-61
2023/04/14 14:26:31;;;;;;;2.70;1.20;;;;;;;;;;5014826;28;20228;-61
2023/04/14 14:28:59;;;;;;;0.93;0.90;;;;;;;;;;5015044;28;20213;-61
2023/04/14 14:31:26;;;;;;;1.80;0.88;;;;;;;;;;5014862;28;20202;-61
2023/04/14 14:33:53;;;;;;;1.67;0.90;;;;;;;;;;5014898;28;20218;-61
2023/04/14 14:36:21;;;;;;;1.00;0.82;;;;;;;;;;5018983;28;20206;-61
2023/04/14 14:38:50;;;;;;;0.80;0.80;;;;;;;;;;5019092;28;20213;-61
2023/04/14 14:41:17;;;;;;;2.35;0.82;;;;;;;;;;5019228;28;20528;-61
2023/04/14 14:43:44;;;;;;;1.55;1.08;;;;;;;;;;5018867;28;20497;-61
2023/04/14 14:46:12;;;;;;;0.80;0.80;;;;;;;;;;5018722;28;20233;-61
2023/04/14 14:48:39;;;;;;;1.02;0.90;;;;;;;;;;5019019;28;20277;-62
2023/04/14 14:51:06;;;;;;;0.85;0.85;;;;;;;;;;5018956;28;20202;-61